Accueil
METAR-TAF:

METAR-TAF

Aéroports :

East Hampton Airport

East Hampton, New York, États-Unis

latitude: 40-57-34N, longitude: 072-15-07W, altitude: 17 m

Observation

Le bulletin a été fait il y a 22 minutes, à 18:55 UTC
Vent 6 kt de ouest, variant entre ouest/sud-ouest et nord-ouest
Température 28°C
Humidité 66%
Pression 1015 hPa
Visibilité: 16.1 km
Ciel clair

METAR: KHTO 151855Z AUTO 28006KT 250V310 10SM CLR 28/21 A2996 RMK AO2 T02750205

Heure: 15:17 (19:17 UTC)


TAF: absent

Observations et prévisions météorologiques de plus de 4000 aéroports (messages METAR et TAF).

Les stations disponibles sont représentées par des disques jaunes et rouges sur la carte.

Passer la souris dessus pour voir le nom de la station.

Cliquer dessus pour voir les observations et prévisions météorologiques.

Pour changer de carte: cliquez sur les boutons verts avec une croix noire pour zoomer, sur le bouton vert avec un tiret pour effectuer un zoom arrière, ou sur les flèches vertes pour les cartes adjacentes.


METAR-TAF: